sensor_id;sensor_type;location;lat;lon;timestamp;pressure;altitude;pressure_sealevel;temperature;humidity
51239;BME280;38154;47.548;18.828;2022-12-19T00:01:26;100945.91;;;-2.96;100.00
51239;BME280;38154;47.548;18.828;2022-12-19T00:03:54;100956.00;;;-2.97;100.00
51239;BME280;38154;47.548;18.828;2022-12-19T00:06:21;100958.25;;;-3.01;100.00
51239;BME280;38154;47.548;18.828;2022-12-19T00:08:49;100965.91;;;-3.01;100.00
51239;BME280;38154;47.548;18.828;2022-12-19T00:11:17;100961.03;;;-2.89;100.00
51239;BME280;38154;47.548;18.828;2022-12-19T00:13:43;100964.22;;;-2.91;100.00
51239;BME280;38154;47.548;18.828;2022-12-19T00:16:12;100963.16;;;-2.93;100.00
51239;BME280;38154;47.548;18.828;2022-12-19T00:18:39;100962.63;;;-3.00;100.00
51239;BME280;38154;47.548;18.828;2022-12-19T00:21:06;100954.03;;;-3.00;100.00
51239;BME280;38154;47.548;18.828;2022-12-19T00:23:33;100957.91;;;-2.95;100.00
51239;BME280;38154;47.548;18.828;2022-12-19T00:28:36;100957.72;;;-2.88;100.00
51239;BME280;38154;47.548;18.828;2022-12-19T00:31:03;100961.66;;;-2.91;100.00
51239;BME280;38154;47.548;18.828;2022-12-19T00:33:29;100950.81;;;-2.89;100.00
51239;BME280;38154;47.548;18.828;2022-12-19T00:36:00;100967.09;;;-2.97;100.00
51239;BME280;38154;47.548;18.828;2022-12-19T00:38:26;100962.81;;;-3.07;100.00
51239;BME280;38154;47.548;18.828;2022-12-19T00:40:53;100953.66;;;-3.05;100.00
51239;BME280;38154;47.548;18.828;2022-12-19T00:43:19;100960.38;;;-3.05;100.00
51239;BME280;38154;47.548;18.828;2022-12-19T00:45:45;100950.53;;;-3.11;100.00
51239;BME280;38154;47.548;18.828;2022-12-19T00:48:11;100952.94;;;-3.12;100.00
51239;BME280;38154;47.548;18.828;2022-12-19T00:50:37;100951.84;;;-3.06;100.00
51239;BME280;38154;47.548;18.828;2022-12-19T00:53:02;100956.00;;;-2.97;100.00
51239;BME280;38154;47.548;18.828;2022-12-19T00:55:28;100954.03;;;-3.00;100.00
51239;BME280;38154;47.548;18.828;2022-12-19T00:57:55;100960.06;;;-3.00;100.00
51239;BME280;38154;47.548;18.828;2022-12-19T01:00:21;100955.28;;;-3.05;100.00
51239;BME280;38154;47.548;18.828;2022-12-19T01:02:46;100955.84;;;-2.99;100.00
51239;BME280;38154;47.548;18.828;2022-12-19T01:05:12;100947.31;;;-3.00;100.00
51239;BME280;38154;47.548;18.828;2022-12-19T01:07:38;100944.63;;;-3.01;100.00
51239;BME280;38154;47.548;18.828;2022-12-19T01:10:04;100945.22;;;-3.04;100.00
51239;BME280;38154;47.548;18.828;2022-12-19T01:12:30;100936.69;;;-3.04;100.00
51239;BME280;38154;47.548;18.828;2022-12-19T01:15:16;100940.81;;;-2.96;100.00
51239;BME280;38154;47.548;18.828;2022-12-19T01:17:42;100931.50;;;-2.95;100.00
51239;BME280;38154;47.548;18.828;2022-12-19T01:20:09;100924.63;;;-2.96;100.00
51239;BME280;38154;47.548;18.828;2022-12-19T01:22:35;100922.94;;;-2.96;100.00
51239;BME280;38154;47.548;18.828;2022-12-19T01:25:01;100915.91;;;-2.99;100.00
51239;BME280;38154;47.548;18.828;2022-12-19T01:27:27;100913.50;;;-2.97;100.00
51239;BME280;38154;47.548;18.828;2022-12-19T01:29:53;100917.50;;;-2.90;100.00
51239;BME280;38154;47.548;18.828;2022-12-19T01:32:20;100908.44;;;-2.87;100.00
51239;BME280;38154;47.548;18.828;2022-12-19T01:34:46;100909.81;;;-2.90;100.00
51239;BME280;38154;47.548;18.828;2022-12-19T01:37:12;100900.66;;;-2.88;100.00
51239;BME280;38154;47.548;18.828;2022-12-19T01:39:38;100891.50;;;-2.86;100.00
51239;BME280;38154;47.548;18.828;2022-12-19T01:42:18;100890.09;;;-2.83;100.00
51239;BME280;38154;47.548;18.828;2022-12-19T01:45:52;100890.72;;;-2.85;100.00
51239;BME280;38154;47.548;18.828;2022-12-19T01:48:37;100894.22;;;-2.93;100.00
51239;BME280;38154;47.548;18.828;2022-12-19T01:51:14;100902.81;;;-2.93;100.00
51239;BME280;38154;47.548;18.828;2022-12-19T01:53:45;100900.25;;;-2.93;100.00
51239;BME280;38154;47.548;18.828;2022-12-19T01:56:13;100902.66;;;-2.94;100.00
51239;BME280;38154;47.548;18.828;2022-12-19T01:58:41;100904.06;;;-2.98;100.00
51239;BME280;38154;47.548;18.828;2022-12-19T02:01:12;100910.66;;;-3.00;100.00
51239;BME280;38154;47.548;18.828;2022-12-19T02:03:39;100902.63;;;-3.05;100.00
51239;BME280;38154;47.548;18.828;2022-12-19T02:06:05;100903.09;;;-3.09;100.00
51239;BME280;38154;47.548;18.828;2022-12-19T02:08:33;100905.34;;;-3.12;100.00
51239;BME280;38154;47.548;18.828;2022-12-19T02:11:00;100910.12;;;-3.06;100.00
51239;BME280;38154;47.548;18.828;2022-12-19T02:13:26;100911.03;;;-3.06;100.00
51239;BME280;38154;47.548;18.828;2022-12-19T02:18:47;100909.62;;;-3.02;100.00
51239;BME280;38154;47.548;18.828;2022-12-19T02:24:23;100914.75;;;-3.21;100.00
51239;BME280;38154;47.548;18.828;2022-12-19T02:30:03;100917.72;;;-3.17;100.00
51239;BME280;38154;47.548;18.828;2022-12-19T02:32:44;100924.06;;;-3.22;100.00
51239;BME280;38154;47.548;18.828;2022-12-19T02:40:55;100929.56;;;-3.36;100.00
51239;BME280;38154;47.548;18.828;2022-12-19T02:43:26;100929.84;;;-3.33;100.00
51239;BME280;38154;47.548;18.828;2022-12-19T02:45:53;100927.22;;;-3.43;100.00
51239;BME280;38154;47.548;18.828;2022-12-19T02:48:21;100924.50;;;-3.45;100.00
51239;BME280;38154;47.548;18.828;2022-12-19T02:50:47;100926.16;;;-3.45;100.00
51239;BME280;38154;47.548;18.828;2022-12-19T02:53:14;100927.12;;;-3.53;100.00
51239;BME280;38154;47.548;18.828;2022-12-19T02:55:50;100931.31;;;-3.54;100.00
51239;BME280;38154;47.548;18.828;2022-12-19T03:01:14;100930.38;;;-3.46;100.00
51239;BME280;38154;47.548;18.828;2022-12-19T03:03:55;100924.09;;;-3.49;100.00
51239;BME280;38154;47.548;18.828;2022-12-19T03:06:30;100925.06;;;-3.39;100.00
51239;BME280;38154;47.548;18.828;2022-12-19T03:11:49;100922.31;;;-3.31;100.00
51239;BME280;38154;47.548;18.828;2022-12-19T03:14:19;100913.62;;;-3.33;100.00
51239;BME280;38154;47.548;18.828;2022-12-19T03:16:46;100910.88;;;-3.26;100.00
51239;BME280;38154;47.548;18.828;2022-12-19T03:19:13;100903.28;;;-3.16;100.00
51239;BME280;38154;47.548;18.828;2022-12-19T03:21:43;100893.97;;;-3.15;100.00
51239;BME280;38154;47.548;18.828;2022-12-19T03:24:10;100899.72;;;-3.18;100.00
51239;BME280;38154;47.548;18.828;2022-12-19T03:26:48;100886.00;;;-3.10;100.00
51239;BME280;38154;47.548;18.828;2022-12-19T03:29:24;100894.53;;;-3.09;100.00
51239;BME280;38154;47.548;18.828;2022-12-19T03:31:54;100884.13;;;-3.02;100.00
51239;BME280;38154;47.548;18.828;2022-12-19T03:34:27;100882.19;;;-3.05;100.00
51239;BME280;38154;47.548;18.828;2022-12-19T03:36:56;100880.13;;;-3.09;100.00
51239;BME280;38154;47.548;18.828;2022-12-19T03:39:25;100885.50;;;-3.06;100.00
51239;BME280;38154;47.548;18.828;2022-12-19T03:41:52;100885.50;;;-3.06;100.00
51239;BME280;38154;47.548;18.828;2022-12-19T03:44:40;100881.56;;;-3.02;100.00
51239;BME280;38154;47.548;18.828;2022-12-19T03:49:51;100886.66;;;-3.02;100.00
51239;BME280;38154;47.548;18.828;2022-12-19T03:57:45;100888.53;;;-2.91;100.00
51239;BME280;38154;47.548;18.828;2022-12-19T04:00:15;100894.50;;;-2.90;100.00
51239;BME280;38154;47.548;18.828;2022-12-19T04:02:46;100894.94;;;-2.86;100.00
51239;BME280;38154;47.548;18.828;2022-12-19T04:05:18;100915.63;;;-2.83;100.00
51239;BME280;38154;47.548;18.828;2022-12-19T04:07:44;100899.66;;;-2.80;100.00
51239;BME280;38154;47.548;18.828;2022-12-19T04:10:14;100893.59;;;-2.72;100.00
51239;BME280;38154;47.548;18.828;2022-12-19T04:12:45;100884.91;;;-2.74;100.00
51239;BME280;38154;47.548;18.828;2022-12-19T04:15:13;100892.28;;;-2.77;100.00
51239;BME280;38154;47.548;18.828;2022-12-19T04:17:43;100901.19;;;-2.82;100.00
51239;BME280;38154;47.548;18.828;2022-12-19T04:20:16;100905.97;;;-2.76;100.00
51239;BME280;38154;47.548;18.828;2022-12-19T04:22:50;100893.44;;;-2.73;100.00
51239;BME280;38154;47.548;18.828;2022-12-19T04:25:21;100895.53;;;-2.69;100.00
51239;BME280;38154;47.548;18.828;2022-12-19T04:27:56;100902.63;;;-2.75;100.00
51239;BME280;38154;47.548;18.828;2022-12-19T04:30:24;100897.06;;;-2.71;100.00
51239;BME280;38154;47.548;18.828;2022-12-19T04:32:50;100895.13;;;-2.74;100.00
51239;BME280;38154;47.548;18.828;2022-12-19T04:35:16;100898.22;;;-2.68;100.00
51239;BME280;38154;47.548;18.828;2022-12-19T04:37:42;100902.31;;;-2.70;100.00
51239;BME280;38154;47.548;18.828;2022-12-19T04:40:09;100898.84;;;-2.70;100.00
51239;BME280;38154;47.548;18.828;2022-12-19T04:42:35;100894.03;;;-2.57;100.00
51239;BME280;38154;47.548;18.828;2022-12-19T04:45:03;100882.06;;;-2.58;100.00
51239;BME280;38154;47.548;18.828;2022-12-19T04:47:29;100876.31;;;-2.55;100.00
51239;BME280;38154;47.548;18.828;2022-12-19T04:49:55;100885.22;;;-2.61;100.00
51239;BME280;38154;47.548;18.828;2022-12-19T04:52:21;100894.94;;;-2.56;100.00
51239;BME280;38154;47.548;18.828;2022-12-19T04:54:46;100901.97;;;-2.54;100.00
51239;BME280;38154;47.548;18.828;2022-12-19T04:57:12;100906.81;;;-2.57;100.00
51239;BME280;38154;47.548;18.828;2022-12-19T04:59:38;100900.31;;;-2.53;100.00
51239;BME280;38154;47.548;18.828;2022-12-19T05:02:04;100901.37;;;-2.51;100.00
51239;BME280;38154;47.548;18.828;2022-12-19T05:04:30;100903.53;;;-2.46;100.00
51239;BME280;38154;47.548;18.828;2022-12-19T05:06:56;100906.84;;;-2.47;100.00
51239;BME280;38154;47.548;18.828;2022-12-19T05:09:22;100908.53;;;-2.47;100.00
51239;BME280;38154;47.548;18.828;2022-12-19T05:11:48;100904.97;;;-2.39;100.00
51239;BME280;38154;47.548;18.828;2022-12-19T05:14:13;100907.25;;;-2.42;100.00
51239;BME280;38154;47.548;18.828;2022-12-19T05:16:40;100912.50;;;-2.40;100.00
51239;BME280;38154;47.548;18.828;2022-12-19T05:19:06;100916.47;;;-2.44;100.00
51239;BME280;38154;47.548;18.828;2022-12-19T05:21:32;100907.41;;;-2.40;100.00
51239;BME280;38154;47.548;18.828;2022-12-19T05:23:57;100906.38;;;-2.43;100.00
51239;BME280;38154;47.548;18.828;2022-12-19T05:26:23;100906.38;;;-2.43;100.00
51239;BME280;38154;47.548;18.828;2022-12-19T05:28:49;100900.41;;;-2.33;100.00
51239;BME280;38154;47.548;18.828;2022-12-19T05:31:18;100896.56;;;-2.38;100.00
51239;BME280;38154;47.548;18.828;2022-12-19T05:33:47;100898.97;;;-2.39;100.00
51239;BME280;38154;47.548;18.828;2022-12-19T05:36:15;100885.81;;;-2.44;100.00
51239;BME280;38154;47.548;18.828;2022-12-19T05:38:40;100890.63;;;-2.47;100.00
51239;BME280;38154;47.548;18.828;2022-12-19T05:41:08;100894.34;;;-2.44;100.00
51239;BME280;38154;47.548;18.828;2022-12-19T05:43:34;100893.34;;;-2.46;100.00
51239;BME280;38154;47.548;18.828;2022-12-19T05:46:00;100900.84;;;-2.47;100.00
51239;BME280;38154;47.548;18.828;2022-12-19T05:48:28;100889.88;;;-2.46;100.00
51239;BME280;38154;47.548;18.828;2022-12-19T05:50:54;100895.00;;;-2.46;100.00
51239;BME280;38154;47.548;18.828;2022-12-19T05:53:20;100893.59;;;-2.43;100.00
51239;BME280;38154;47.548;18.828;2022-12-19T05:55:46;100901.41;;;-2.41;100.00
51239;BME280;38154;47.548;18.828;2022-12-19T05:58:12;100894.34;;;-2.44;100.00
51239;BME280;38154;47.548;18.828;2022-12-19T06:00:38;100896.16;;;-2.43;100.00
51239;BME280;38154;47.548;18.828;2022-12-19T06:03:04;100897.03;;;-2.42;100.00
51239;BME280;38154;47.548;18.828;2022-12-19T06:05:30;100896.16;;;-2.43;100.00
51239;BME280;38154;47.548;18.828;2022-12-19T06:07:56;100899.47;;;-2.44;100.00
51239;BME280;38154;47.548;18.828;2022-12-19T06:10:22;100903.41;;;-2.47;100.00
51239;BME280;38154;47.548;18.828;2022-12-19T06:12:48;100901.47;;;-2.50;100.00
51239;BME280;38154;47.548;18.828;2022-12-19T06:15:14;100908.09;;;-2.52;100.00
51239;BME280;38154;47.548;18.828;2022-12-19T06:17:39;100904.81;;;-2.51;100.00
51239;BME280;38154;47.548;18.828;2022-12-19T06:20:06;100902.38;;;-2.49;100.00
51239;BME280;38154;47.548;18.828;2022-12-19T06:22:33;100906.84;;;-2.47;100.00
51239;BME280;38154;47.548;18.828;2022-12-19T06:24:58;100908.66;;;-2.46;100.00
51239;BME280;38154;47.548;18.828;2022-12-19T06:27:24;100901.87;;;-2.45;100.00
51239;BME280;38154;47.548;18.828;2022-12-19T06:29:50;100903.53;;;-2.46;100.00
51239;BME280;38154;47.548;18.828;2022-12-19T06:32:16;100902.53;;;-2.48;100.00
51239;BME280;38154;47.548;18.828;2022-12-19T06:34:42;100907.63;;;-2.48;100.00
51239;BME280;38154;47.548;18.828;2022-12-19T06:37:08;100902.38;;;-2.49;100.00
51239;BME280;38154;47.548;18.828;2022-12-19T06:39:34;100903.66;;;-2.54;100.00
51239;BME280;38154;47.548;18.828;2022-12-19T06:42:00;100908.09;;;-2.52;100.00
51239;BME280;38154;47.548;18.828;2022-12-19T06:44:44;100907.63;;;-2.48;100.00
51239;BME280;38154;47.548;18.828;2022-12-19T06:47:10;100905.97;;;-2.47;100.00
51239;BME280;38154;47.548;18.828;2022-12-19T06:49:36;100907.63;;;-2.48;100.00
51239;BME280;38154;47.548;18.828;2022-12-19T06:52:02;100899.97;;;-2.48;100.00
51239;BME280;38154;47.548;18.828;2022-12-19T06:54:28;100894.87;;;-2.48;100.00
51239;BME280;38154;47.548;18.828;2022-12-19T06:56:54;100891.78;;;-2.44;100.00
51239;BME280;38154;47.548;18.828;2022-12-19T06:59:20;100898.84;;;-2.41;100.00
51239;BME280;38154;47.548;18.828;2022-12-19T07:04:38;100909.06;;;-2.41;100.00
51239;BME280;38154;47.548;18.828;2022-12-19T07:07:06;100905.38;;;-2.34;100.00
51239;BME280;38154;47.548;18.828;2022-12-19T07:09:33;100913.66;;;-2.37;100.00
51239;BME280;38154;47.548;18.828;2022-12-19T07:12:00;100916.50;;;-2.34;100.00
51239;BME280;38154;47.548;18.828;2022-12-19T07:14:26;100924.16;;;-2.34;100.00
51239;BME280;38154;47.548;18.828;2022-12-19T07:16:53;100914.19;;;-2.41;100.00
51239;BME280;38154;47.548;18.828;2022-12-19T07:19:21;100909.44;;;-2.36;100.00
51239;BME280;38154;47.548;18.828;2022-12-19T07:21:47;100905.53;;;-2.33;100.00
51239;BME280;38154;47.548;18.828;2022-12-19T07:24:14;100908.97;;;-2.32;100.00
51239;BME280;38154;47.548;18.828;2022-12-19T07:26:41;100897.34;;;-2.29;100.00
51239;BME280;38154;47.548;18.828;2022-12-19T07:29:09;100901.94;;;-2.25;100.00
51239;BME280;38154;47.548;18.828;2022-12-19T07:31:36;100911.16;;;-2.16;100.00
51239;BME280;38154;47.548;18.828;2022-12-19T07:34:02;100908.47;;;-2.18;100.00
51239;BME280;38154;47.548;18.828;2022-12-19T07:36:28;100910.78;;;-2.21;100.00
51239;BME280;38154;47.548;18.828;2022-12-19T07:38:54;100900.81;;;-2.18;100.00
51239;BME280;38154;47.548;18.828;2022-12-19T07:41:19;100894.34;;;-2.14;100.00
51239;BME280;38154;47.548;18.828;2022-12-19T07:43:45;100896.09;;;-2.13;100.00
51239;BME280;38154;47.548;18.828;2022-12-19T07:46:12;100911.44;;;-2.13;100.00
51239;BME280;38154;47.548;18.828;2022-12-19T07:48:38;100911.31;;;-2.15;100.00
51239;BME280;38154;47.548;18.828;2022-12-19T07:51:04;100920.12;;;-2.11;100.00
51239;BME280;38154;47.548;18.828;2022-12-19T07:53:30;100933.59;;;-2.03;100.00
51239;BME280;38154;47.548;18.828;2022-12-19T07:55:56;100934.38;;;-1.94;100.00
51239;BME280;38154;47.548;18.828;2022-12-19T07:58:22;100932.59;;;-1.95;100.00
51239;BME280;38154;47.548;18.828;2022-12-19T08:00:56;100941.28;;;-1.93;100.00
51239;BME280;38154;47.548;18.828;2022-12-19T08:03:23;100950.34;;;-1.97;100.00
51239;BME280;38154;47.548;18.828;2022-12-19T08:05:49;100953.66;;;-1.98;100.00
51239;BME280;38154;47.548;18.828;2022-12-19T08:08:15;100949.88;;;-1.93;100.00
51239;BME280;38154;47.548;18.828;2022-12-19T08:10:41;100952.53;;;-1.91;100.00
51239;BME280;38154;47.548;18.828;2022-12-19T08:13:07;100964.66;;;-1.99;100.00
51239;BME280;38154;47.548;18.828;2022-12-19T08:15:33;100961.84;;;-2.02;100.00
51239;BME280;38154;47.548;18.828;2022-12-19T08:17:59;100954.91;;;-2.03;100.00
51239;BME280;38154;47.548;18.828;2022-12-19T08:20:26;100952.75;;;-1.98;100.00
51239;BME280;38154;47.548;18.828;2022-12-19T08:22:52;100948.06;;;-1.94;100.00
51239;BME280;38154;47.548;18.828;2022-12-19T08:25:17;100940.66;;;-1.91;100.00
51239;BME280;38154;47.548;18.828;2022-12-19T08:27:43;100942.19;;;-1.93;100.00
51239;BME280;38154;47.548;18.828;2022-12-19T08:30:10;100946.31;;;-1.74;100.00
51239;BME280;38154;47.548;18.828;2022-12-19T08:32:37;100939.53;;;-1.63;100.00
51239;BME280;38154;47.548;18.828;2022-12-19T08:35:04;100932.66;;;-1.54;100.00
51239;BME280;38154;47.548;18.828;2022-12-19T08:37:29;100930.88;;;-1.45;100.00
51239;BME280;38154;47.548;18.828;2022-12-19T08:39:55;100921.78;;;-1.41;100.00
51239;BME280;38154;47.548;18.828;2022-12-19T08:42:21;100918.31;;;-1.32;100.00
51239;BME280;38154;47.548;18.828;2022-12-19T08:44:47;100922.25;;;-1.04;100.00
51239;BME280;38154;47.548;18.828;2022-12-19T08:47:13;100920.72;;;-0.92;100.00
51239;BME280;38154;47.548;18.828;2022-12-19T08:49:39;100930.84;;;-0.51;100.00
51239;BME280;38154;47.548;18.828;2022-12-19T08:52:05;100937.44;;;-0.32;100.00
51239;BME280;38154;47.548;18.828;2022-12-19T08:54:31;100924.72;;;-0.53;100.00
51239;BME280;38154;47.548;18.828;2022-12-19T08:56:57;100932.34;;;-0.85;100.00
51239;BME280;38154;47.548;18.828;2022-12-19T08:59:23;100928.66;;;-0.99;100.00
51239;BME280;38154;47.548;18.828;2022-12-19T09:01:48;100929.06;;;-1.15;100.00
51239;BME280;38154;47.548;18.828;2022-12-19T09:04:14;100920.38;;;-1.17;100.00
51239;BME280;38154;47.548;18.828;2022-12-19T09:06:40;100920.75;;;-1.23;100.00
51239;BME280;38154;47.548;18.828;2022-12-19T09:09:06;100911.03;;;-1.27;100.00
51239;BME280;38154;47.548;18.828;2022-12-19T09:11:32;100913.72;;;-1.36;100.00
51239;BME280;38154;47.548;18.828;2022-12-19T09:13:58;100918.31;;;-1.21;100.00
51239;BME280;38154;47.548;18.828;2022-12-19T09:16:26;100938.22;;;-0.76;100.00
51239;BME280;38154;47.548;18.828;2022-12-19T09:18:54;100948.50;;;-0.11;100.00
51239;BME280;38154;47.548;18.828;2022-12-19T09:21:23;100958.81;;;-0.22;100.00
51239;BME280;38154;47.548;18.828;2022-12-19T09:23:52;100957.09;;;-0.11;100.00
51239;BME280;38154;47.548;18.828;2022-12-19T09:26:23;100945.41;;;-0.07;100.00
51239;BME280;38154;47.548;18.828;2022-12-19T09:28:50;100952.19;;;-0.30;100.00
51239;BME280;38154;47.548;18.828;2022-12-19T09:31:21;100945.34;;;-0.51;100.00
51239;BME280;38154;47.548;18.828;2022-12-19T09:33:47;100937.75;;;-0.50;100.00
51239;BME280;38154;47.548;18.828;2022-12-19T09:36:19;100931.81;;;0.16;100.00
51239;BME280;38154;47.548;18.828;2022-12-19T09:38:46;100911.31;;;0.62;100.00
51239;BME280;38154;47.548;18.828;2022-12-19T09:47:12;100932.72;;;1.79;90.31
51239;BME280;38154;47.548;18.828;2022-12-19T09:49:42;100917.75;;;1.73;89.10
51239;BME280;38154;47.548;18.828;2022-12-19T09:52:22;100912.94;;;2.15;87.98
51239;BME280;38154;47.548;18.828;2022-12-19T09:54:54;100897.87;;;1.96;87.57
51239;BME280;38154;47.548;18.828;2022-12-19T10:00:15;100891.59;;;2.54;84.38
51239;BME280;38154;47.548;18.828;2022-12-19T10:05:42;100879.94;;;1.72;87.59
51239;BME280;38154;47.548;18.828;2022-12-19T10:08:23;100875.75;;;1.49;90.63
51239;BME280;38154;47.548;18.828;2022-12-19T10:19:09;100884.34;;;0.79;99.19
51239;BME280;38154;47.548;18.828;2022-12-19T10:30:25;100869.62;;;0.30;100.00
51239;BME280;38154;47.548;18.828;2022-12-19T10:35:41;100865.00;;;0.14;100.00
51239;BME280;38154;47.548;18.828;2022-12-19T10:40:46;100855.09;;;0.19;99.57
51239;BME280;38154;47.548;18.828;2022-12-19T10:46:02;100860.97;;;0.18;99.32
51239;BME280;38154;47.548;18.828;2022-12-19T10:48:35;100843.37;;;0.23;100.00
51239;BME280;38154;47.548;18.828;2022-12-19T10:51:01;100848.75;;;0.26;100.00
51239;BME280;38154;47.548;18.828;2022-12-19T10:53:29;100844.97;;;0.32;98.85
51239;BME280;38154;47.548;18.828;2022-12-19T10:56:00;100847.47;;;0.43;98.59
51239;BME280;38154;47.548;18.828;2022-12-19T10:58:27;100846.25;;;0.61;97.55
51239;BME280;38154;47.548;18.828;2022-12-19T11:03:33;100842.19;;;0.29;97.96
51239;BME280;38154;47.548;18.828;2022-12-19T11:06:01;100835.81;;;0.24;99.46
51239;BME280;38154;47.548;18.828;2022-12-19T11:08:34;100843.59;;;0.14;99.31
51239;BME280;38154;47.548;18.828;2022-12-19T11:13:47;100841.97;;;0.04;100.00
51239;BME280;38154;47.548;18.828;2022-12-19T11:16:21;100844.91;;;0.09;100.00
51239;BME280;38154;47.548;18.828;2022-12-19T11:18:47;100839.50;;;0.28;100.00
51239;BME280;38154;47.548;18.828;2022-12-19T11:21:22;100837.94;;;0.30;99.74
51239;BME280;38154;47.548;18.828;2022-12-19T11:24:00;100844.38;;;0.25;100.00
51239;BME280;38154;47.548;18.828;2022-12-19T11:29:26;100818.34;;;0.08;100.00
51239;BME280;38154;47.548;18.828;2022-12-19T11:31:58;100812.34;;;0.08;100.00
51239;BME280;38154;47.548;18.828;2022-12-19T11:34:27;100805.97;;;0.03;100.00
51239;BME280;38154;47.548;18.828;2022-12-19T11:39:39;100802.78;;;-0.05;100.00
51239;BME280;38154;47.548;18.828;2022-12-19T11:42:24;100800.31;;;-0.15;100.00
51239;BME280;38154;47.548;18.828;2022-12-19T11:45:12;100789.94;;;-0.17;100.00
51239;BME280;38154;47.548;18.828;2022-12-19T11:47:48;100793.06;;;-0.21;100.00
51239;BME280;38154;47.548;18.828;2022-12-19T11:50:32;100790.56;;;-0.31;100.00
51239;BME280;38154;47.548;18.828;2022-12-19T11:53:13;100786.75;;;-0.36;100.00
51239;BME280;38154;47.548;18.828;2022-12-19T11:58:22;100784.97;;;-0.38;100.00
51239;BME280;38154;47.548;18.828;2022-12-19T12:06:32;100766.34;;;-0.13;100.00
51239;BME280;38154;47.548;18.828;2022-12-19T12:09:05;100774.16;;;-0.11;100.00
51239;BME280;38154;47.548;18.828;2022-12-19T12:14:15;100758.75;;;-0.11;100.00
51239;BME280;38154;47.548;18.828;2022-12-19T12:17:01;100761.31;;;-0.11;100.00
51239;BME280;38154;47.548;18.828;2022-12-19T12:25:20;100765.44;;;-0.13;100.00
51239;BME280;38154;47.548;18.828;2022-12-19T12:30:22;100761.56;;;-0.30;100.00
51239;BME280;38154;47.548;18.828;2022-12-19T12:35:33;100768.94;;;-0.35;100.00
51239;BME280;38154;47.548;18.828;2022-12-19T12:38:27;100773.03;;;-0.37;100.00
51239;BME280;38154;47.548;18.828;2022-12-19T12:41:22;100769.09;;;-0.44;100.00
51239;BME280;38154;47.548;18.828;2022-12-19T12:44:12;100774.28;;;-0.32;100.00
51239;BME280;38154;47.548;18.828;2022-12-19T12:46:49;100775.59;;;-0.37;100.00
51239;BME280;38154;47.548;18.828;2022-12-19T12:49:36;100763.44;;;-0.40;100.00
51239;BME280;38154;47.548;18.828;2022-12-19T12:52:06;100754.06;;;-0.39;100.00
51239;BME280;38154;47.548;18.828;2022-12-19T12:54:37;100754.50;;;-0.45;100.00
51239;BME280;38154;47.548;18.828;2022-12-19T12:57:04;100755.47;;;-0.54;100.00
51239;BME280;38154;47.548;18.828;2022-12-19T12:59:30;100749.97;;;-0.59;100.00
51239;BME280;38154;47.548;18.828;2022-12-19T13:02:06;100737.97;;;-0.60;100.00
51239;BME280;38154;47.548;18.828;2022-12-19T13:04:53;100742.97;;;-0.62;100.00
51239;BME280;38154;47.548;18.828;2022-12-19T13:07:50;100724.25;;;-0.61;100.00
51239;BME280;38154;47.548;18.828;2022-12-19T13:10:27;100717.59;;;-0.59;100.00
51239;BME280;38154;47.548;18.828;2022-12-19T13:13:20;100726.69;;;-0.62;100.00
51239;BME280;38154;47.548;18.828;2022-12-19T13:19:23;100729.53;;;-0.69;100.00
51239;BME280;38154;47.548;18.828;2022-12-19T13:27:02;100717.47;;;-0.60;100.00
51239;BME280;38154;47.548;18.828;2022-12-19T13:29:52;100722.22;;;-0.65;100.00
51239;BME280;38154;47.548;18.828;2022-12-19T13:32:19;100723.12;;;-0.64;100.00
51239;BME280;38154;47.548;18.828;2022-12-19T13:34:52;100706.00;;;-0.76;100.00
51239;BME280;38154;47.548;18.828;2022-12-19T13:42:21;100701.75;;;-0.87;100.00
51239;BME280;38154;47.548;18.828;2022-12-19T13:45:19;100713.94;;;-0.95;100.00
51239;BME280;38154;47.548;18.828;2022-12-19T13:47:48;100710.88;;;-1.01;100.00
51239;BME280;38154;47.548;18.828;2022-12-19T13:50:22;100713.06;;;-0.95;100.00
51239;BME280;38154;47.548;18.828;2022-12-19T13:52:51;100714.25;;;-1.02;100.00
51239;BME280;38154;47.548;18.828;2022-12-19T13:55:17;100715.88;;;-1.02;100.00
51239;BME280;38154;47.548;18.828;2022-12-19T13:57:46;100706.81;;;-1.09;100.00
51239;BME280;38154;47.548;18.828;2022-12-19T14:00:17;100709.62;;;-1.06;100.00
51239;BME280;38154;47.548;18.828;2022-12-19T14:02:48;100719.16;;;-1.15;100.00
51239;BME280;38154;47.548;18.828;2022-12-19T14:05:26;100700.75;;;-1.21;100.00
51239;BME280;38154;47.548;18.828;2022-12-19T14:07:54;100693.88;;;-1.22;100.00
51239;BME280;38154;47.548;18.828;2022-12-19T14:10:33;100712.38;;;-1.15;100.00
51239;BME280;38154;47.548;18.828;2022-12-19T14:13:03;100699.31;;;-1.18;100.00
51239;BME280;38154;47.548;18.828;2022-12-19T14:15:48;100704.09;;;-1.22;100.00
51239;BME280;38154;47.548;18.828;2022-12-19T14:18:23;100693.50;;;-1.27;100.00
51239;BME280;38154;47.548;18.828;2022-12-19T14:21:06;100684.25;;;-1.25;100.00
51239;BME280;38154;47.548;18.828;2022-12-19T14:23:34;100696.62;;;-1.19;100.00
51239;BME280;38154;47.548;18.828;2022-12-19T14:26:00;100691.31;;;-1.22;100.00
51239;BME280;38154;47.548;18.828;2022-12-19T14:28:36;100673.72;;;-1.18;100.00
51239;BME280;38154;47.548;18.828;2022-12-19T14:31:10;100672.59;;;-1.21;100.00
51239;BME280;38154;47.548;18.828;2022-12-19T14:33:44;100677.66;;;-1.11;100.00
51239;BME280;38154;47.548;18.828;2022-12-19T14:36:12;100680.09;;;-1.13;100.00
51239;BME280;38154;47.548;18.828;2022-12-19T14:38:38;100678.97;;;-1.16;100.00
51239;BME280;38154;47.548;18.828;2022-12-19T14:41:05;100693.19;;;-1.20;100.00